sensor_id;sensor_type;location;lat;lon;timestamp;P1;P2;P0
72307;PMS5003;60257;42.638;23.376;2023-08-01T00:02:04;6.00;6.00;5.00
72307;PMS5003;60257;42.638;23.376;2023-08-01T00:04:30;6.00;6.00;4.00
72307;PMS5003;60257;42.638;23.376;2023-08-01T00:06:56;5.00;3.50;2.50
72307;PMS5003;60257;42.638;23.376;2023-08-01T00:09:21;7.50;7.50;5.00
72307;PMS5003;60257;42.638;23.376;2023-08-01T00:11:47;8.00;8.00;5.75
72307;PMS5003;60257;42.638;23.376;2023-08-01T00:14:12;8.00;8.00;6.00
72307;PMS5003;60257;42.638;23.376;2023-08-01T00:16:37;3.75;3.75;1.75
72307;PMS5003;60257;42.638;23.376;2023-08-01T00:19:03;8.50;8.50;6.00
72307;PMS5003;60257;42.638;23.376;2023-08-01T00:21:28;8.50;7.25;5.00
72307;PMS5003;60257;42.638;23.376;2023-08-01T00:23:57;7.50;7.50;5.25
72307;PMS5003;60257;42.638;23.376;2023-08-01T00:26:22;5.75;4.50;3.75
72307;PMS5003;60257;42.638;23.376;2023-08-01T00:28:48;6.00;6.00;4.00
72307;PMS5003;60257;42.638;23.376;2023-08-01T00:31:14;6.50;6.50;4.50
72307;PMS5003;60257;42.638;23.376;2023-08-01T00:33:39;7.75;7.75;4.75
72307;PMS5003;60257;42.638;23.376;2023-08-01T00:36:04;6.50;6.50;4.50
72307;PMS5003;60257;42.638;23.376;2023-08-01T00:38:35;6.25;6.25;3.75
72307;PMS5003;60257;42.638;23.376;2023-08-01T00:41:01;5.25;4.75;3.00
72307;PMS5003;60257;42.638;23.376;2023-08-01T00:43:26;7.00;7.00;4.25
72307;PMS5003;60257;42.638;23.376;2023-08-01T00:45:52;8.00;8.00;6.00
72307;PMS5003;60257;42.638;23.376;2023-08-01T00:48:24;5.50;5.50;4.25
72307;PMS5003;60257;42.638;23.376;2023-08-01T00:50:49;7.00;7.00;4.00
72307;PMS5003;60257;42.638;23.376;2023-08-01T00:53:15;6.25;5.75;3.50
72307;PMS5003;60257;42.638;23.376;2023-08-01T00:55:43;9.50;8.50;5.00
72307;PMS5003;60257;42.638;23.376;2023-08-01T00:58:08;7.75;7.75;5.25
72307;PMS5003;60257;42.638;23.376;2023-08-01T01:00:34;9.75;9.75;6.00
72307;PMS5003;60257;42.638;23.376;2023-08-01T01:03:00;8.75;8.75;6.00
72307;PMS5003;60257;42.638;23.376;2023-08-01T01:05:25;9.25;9.25;6.25
72307;PMS5003;60257;42.638;23.376;2023-08-01T01:07:56;4.00;4.00;3.00
72307;PMS5003;60257;42.638;23.376;2023-08-01T01:10:23;8.00;6.75;5.00
72307;PMS5003;60257;42.638;23.376;2023-08-01T01:12:48;6.75;6.75;4.00
72307;PMS5003;60257;42.638;23.376;2023-08-01T01:15:15;9.25;9.25;5.50
72307;PMS5003;60257;42.638;23.376;2023-08-01T01:17:40;6.75;6.75;5.00
72307;PMS5003;60257;42.638;23.376;2023-08-01T01:20:06;8.25;8.25;6.00
72307;PMS5003;60257;42.638;23.376;2023-08-01T01:22:32;8.00;8.00;6.00
72307;PMS5003;60257;42.638;23.376;2023-08-01T01:24:58;12.00;10.75;6.75
72307;PMS5003;60257;42.638;23.376;2023-08-01T01:27:26;9.75;8.50;5.50
72307;PMS5003;60257;42.638;23.376;2023-08-01T01:29:53;6.25;6.25;4.75
72307;PMS5003;60257;42.638;23.376;2023-08-01T01:32:20;9.75;8.25;6.00
72307;PMS5003;60257;42.638;23.376;2023-08-01T01:34:46;9.00;8.50;6.00
72307;PMS5003;60257;42.638;23.376;2023-08-01T01:37:12;7.50;7.50;5.25
72307;PMS5003;60257;42.638;23.376;2023-08-01T01:39:38;9.00;7.50;5.50
72307;PMS5003;60257;42.638;23.376;2023-08-01T01:42:03;6.25;6.25;4.00
72307;PMS5003;60257;42.638;23.376;2023-08-01T01:44:29;7.00;7.00;5.00
72307;PMS5003;60257;42.638;23.376;2023-08-01T01:46:54;6.75;6.00;4.00
72307;PMS5003;60257;42.638;23.376;2023-08-01T01:49:20;5.00;5.00;2.50
72307;PMS5003;60257;42.638;23.376;2023-08-01T01:51:46;9.50;9.50;5.75
72307;PMS5003;60257;42.638;23.376;2023-08-01T01:54:11;8.75;7.00;6.00
72307;PMS5003;60257;42.638;23.376;2023-08-01T01:56:37;9.25;9.25;5.75
72307;PMS5003;60257;42.638;23.376;2023-08-01T01:59:05;7.50;7.50;5.00
72307;PMS5003;60257;42.638;23.376;2023-08-01T02:01:30;10.75;9.25;5.00
72307;PMS5003;60257;42.638;23.376;2023-08-01T02:03:56;5.00;5.00;4.00
72307;PMS5003;60257;42.638;23.376;2023-08-01T02:06:21;6.75;6.75;3.00
72307;PMS5003;60257;42.638;23.376;2023-08-01T02:08:46;7.50;7.00;5.00
72307;PMS5003;60257;42.638;23.376;2023-08-01T02:11:12;9.00;9.00;5.75
72307;PMS5003;60257;42.638;23.376;2023-08-01T02:13:37;7.25;7.25;5.00
72307;PMS5003;60257;42.638;23.376;2023-08-01T02:16:03;9.00;7.25;5.75
72307;PMS5003;60257;42.638;23.376;2023-08-01T02:18:28;7.00;6.00;4.00
72307;PMS5003;60257;42.638;23.376;2023-08-01T02:20:54;10.00;9.00;6.00
72307;PMS5003;60257;42.638;23.376;2023-08-01T02:23:19;8.00;8.00;5.00
72307;PMS5003;60257;42.638;23.376;2023-08-01T02:25:45;8.25;8.25;5.75
72307;PMS5003;60257;42.638;23.376;2023-08-01T02:28:10;7.50;7.50;5.00
72307;PMS5003;60257;42.638;23.376;2023-08-01T02:30:37;7.50;7.50;5.25
72307;PMS5003;60257;42.638;23.376;2023-08-01T02:33:03;8.50;8.50;5.50
72307;PMS5003;60257;42.638;23.376;2023-08-01T02:35:28;13.00;12.25;7.50
72307;PMS5003;60257;42.638;23.376;2023-08-01T02:37:54;12.00;11.00;8.25
72307;PMS5003;60257;42.638;23.376;2023-08-01T02:40:20;12.00;12.00;9.00
72307;PMS5003;60257;42.638;23.376;2023-08-01T02:42:46;10.25;9.00;6.00
72307;PMS5003;60257;42.638;23.376;2023-08-01T02:45:11;12.00;11.50;8.25
72307;PMS5003;60257;42.638;23.376;2023-08-01T02:47:37;12.00;12.00;8.25
72307;PMS5003;60257;42.638;23.376;2023-08-01T02:50:02;10.00;9.25;7.00
72307;PMS5003;60257;42.638;23.376;2023-08-01T02:52:28;13.75;13.75;9.75
72307;PMS5003;60257;42.638;23.376;2023-08-01T02:54:54;10.50;10.00;7.00
72307;PMS5003;60257;42.638;23.376;2023-08-01T02:57:19;12.75;11.75;7.25
72307;PMS5003;60257;42.638;23.376;2023-08-01T02:59:44;15.00;15.00;10.75
72307;PMS5003;60257;42.638;23.376;2023-08-01T03:02:10;10.50;8.00;6.00
72307;PMS5003;60257;42.638;23.376;2023-08-01T03:04:35;10.25;9.00;5.25
72307;PMS5003;60257;42.638;23.376;2023-08-01T03:07:01;11.50;11.50;8.75
72307;PMS5003;60257;42.638;23.376;2023-08-01T03:09:26;12.00;11.75;8.50
72307;PMS5003;60257;42.638;23.376;2023-08-01T03:11:52;11.25;9.25;6.50
72307;PMS5003;60257;42.638;23.376;2023-08-01T03:14:17;13.50;13.50;8.75
72307;PMS5003;60257;42.638;23.376;2023-08-01T03:16:43;12.50;12.50;9.50
72307;PMS5003;60257;42.638;23.376;2023-08-01T03:19:08;10.00;10.00;6.00
72307;PMS5003;60257;42.638;23.376;2023-08-01T03:21:34;13.00;10.25;7.75
72307;PMS5003;60257;42.638;23.376;2023-08-01T03:24:00;12.00;9.25;6.00
72307;PMS5003;60257;42.638;23.376;2023-08-01T03:26:26;10.25;10.25;7.75
72307;PMS5003;60257;42.638;23.376;2023-08-01T03:28:55;7.75;7.75;4.25
72307;PMS5003;60257;42.638;23.376;2023-08-01T03:31:24;10.25;10.25;7.00
72307;PMS5003;60257;42.638;23.376;2023-08-01T03:33:50;10.50;10.50;6.75
72307;PMS5003;60257;42.638;23.376;2023-08-01T03:36:15;11.00;11.00;7.00
72307;PMS5003;60257;42.638;23.376;2023-08-01T03:38:41;11.25;10.75;5.75
72307;PMS5003;60257;42.638;23.376;2023-08-01T03:41:06;12.50;11.50;7.25
72307;PMS5003;60257;42.638;23.376;2023-08-01T03:43:32;20.25;17.00;10.75
72307;PMS5003;60257;42.638;23.376;2023-08-01T03:45:57;14.50;14.00;9.75
72307;PMS5003;60257;42.638;23.376;2023-08-01T03:48:22;10.75;10.00;5.50
72307;PMS5003;60257;42.638;23.376;2023-08-01T03:50:48;16.25;16.25;11.50
72307;PMS5003;60257;42.638;23.376;2023-08-01T03:53:13;16.25;15.50;11.00
72307;PMS5003;60257;42.638;23.376;2023-08-01T03:55:39;17.75;17.00;12.00
72307;PMS5003;60257;42.638;23.376;2023-08-01T03:58:04;15.50;15.25;10.00
72307;PMS5003;60257;42.638;23.376;2023-08-01T04:00:30;19.25;19.25;13.00
72307;PMS5003;60257;42.638;23.376;2023-08-01T04:02:59;20.25;18.25;13.75
72307;PMS5003;60257;42.638;23.376;2023-08-01T04:05:25;14.50;14.50;10.00
72307;PMS5003;60257;42.638;23.376;2023-08-01T04:07:50;12.50;12.50;9.00
72307;PMS5003;60257;42.638;23.376;2023-08-01T04:10:16;12.50;12.50;10.75
72307;PMS5003;60257;42.638;23.376;2023-08-01T04:12:41;14.50;14.50;11.50
72307;PMS5003;60257;42.638;23.376;2023-08-01T04:15:08;15.25;14.25;10.00
72307;PMS5003;60257;42.638;23.376;2023-08-01T04:17:34;17.75;16.00;11.00
72307;PMS5003;60257;42.638;23.376;2023-08-01T04:19:59;21.33;21.33;15.00
72307;PMS5003;60257;42.638;23.376;2023-08-01T04:22:25;16.50;16.00;11.25
72307;PMS5003;60257;42.638;23.376;2023-08-01T04:24:50;14.75;14.75;10.50
72307;PMS5003;60257;42.638;23.376;2023-08-01T04:27:16;32.33;31.33;21.67
72307;PMS5003;60257;42.638;23.376;2023-08-01T04:29:41;21.33;21.33;15.33
72307;PMS5003;60257;42.638;23.376;2023-08-01T04:32:07;16.50;13.50;8.50
72307;PMS5003;60257;42.638;23.376;2023-08-01T04:34:33;21.00;20.50;15.00
72307;PMS5003;60257;42.638;23.376;2023-08-01T04:36:58;20.50;20.50;14.00
72307;PMS5003;60257;42.638;23.376;2023-08-01T04:39:24;17.50;16.50;11.50
72307;PMS5003;60257;42.638;23.376;2023-08-01T04:41:49;15.00;15.00;10.75
72307;PMS5003;60257;42.638;23.376;2023-08-01T04:44:15;20.75;20.75;15.00
72307;PMS5003;60257;42.638;23.376;2023-08-01T04:46:41;26.00;24.75;17.75
72307;PMS5003;60257;42.638;23.376;2023-08-01T04:49:07;22.50;21.50;14.00
72307;PMS5003;60257;42.638;23.376;2023-08-01T04:51:32;21.75;21.75;14.25
72307;PMS5003;60257;42.638;23.376;2023-08-01T04:53:58;21.25;21.25;13.00
72307;PMS5003;60257;42.638;23.376;2023-08-01T04:56:23;15.50;15.50;10.75
72307;PMS5003;60257;42.638;23.376;2023-08-01T04:58:49;19.50;18.50;12.75
72307;PMS5003;60257;42.638;23.376;2023-08-01T05:01:15;16.75;14.00;10.25
72307;PMS5003;60257;42.638;23.376;2023-08-01T05:03:40;17.25;17.25;12.00
72307;PMS5003;60257;42.638;23.376;2023-08-01T05:06:06;13.25;12.25;9.50
72307;PMS5003;60257;42.638;23.376;2023-08-01T05:08:31;13.00;11.75;9.00
72307;PMS5003;60257;42.638;23.376;2023-08-01T05:10:57;22.75;22.75;15.00
72307;PMS5003;60257;42.638;23.376;2023-08-01T05:13:22;20.25;19.25;13.50
72307;PMS5003;60257;42.638;23.376;2023-08-01T05:15:48;22.00;22.00;16.25
72307;PMS5003;60257;42.638;23.376;2023-08-01T05:18:14;12.00;12.00;9.50
72307;PMS5003;60257;42.638;23.376;2023-08-01T05:20:41;10.75;10.75;7.00
72307;PMS5003;60257;42.638;23.376;2023-08-01T05:23:07;13.50;13.50;10.75
72307;PMS5003;60257;42.638;23.376;2023-08-01T05:25:32;11.75;11.75;8.00
72307;PMS5003;60257;42.638;23.376;2023-08-01T05:27:57;14.25;13.25;9.25
72307;PMS5003;60257;42.638;23.376;2023-08-01T05:30:24;13.25;13.25;9.25
72307;PMS5003;60257;42.638;23.376;2023-08-01T05:32:50;15.50;15.50;10.00
72307;PMS5003;60257;42.638;23.376;2023-08-01T05:35:15;13.00;13.00;9.50
72307;PMS5003;60257;42.638;23.376;2023-08-01T05:37:41;15.75;15.75;9.75
72307;PMS5003;60257;42.638;23.376;2023-08-01T05:40:07;20.00;19.00;11.75
72307;PMS5003;60257;42.638;23.376;2023-08-01T05:42:33;13.25;13.25;8.00
72307;PMS5003;60257;42.638;23.376;2023-08-01T05:44:58;25.75;25.75;17.50
72307;PMS5003;60257;42.638;23.376;2023-08-01T05:47:24;17.50;17.50;12.25
72307;PMS5003;60257;42.638;23.376;2023-08-01T05:49:49;13.00;12.75;7.00
72307;PMS5003;60257;42.638;23.376;2023-08-01T05:52:15;21.25;21.25;13.75
72307;PMS5003;60257;42.638;23.376;2023-08-01T05:54:40;19.50;17.75;11.50
72307;PMS5003;60257;42.638;23.376;2023-08-01T05:57:07;15.50;15.50;11.75
72307;PMS5003;60257;42.638;23.376;2023-08-01T05:59:33;19.50;18.50;13.25
72307;PMS5003;60257;42.638;23.376;2023-08-01T06:01:59;15.75;15.75;11.00
72307;PMS5003;60257;42.638;23.376;2023-08-01T06:04:24;12.75;11.75;6.50
72307;PMS5003;60257;42.638;23.376;2023-08-01T06:06:50;12.25;12.25;8.25
72307;PMS5003;60257;42.638;23.376;2023-08-01T06:09:16;16.25;16.25;11.75
72307;PMS5003;60257;42.638;23.376;2023-08-01T06:11:41;13.00;13.00;9.75
72307;PMS5003;60257;42.638;23.376;2023-08-01T06:14:07;10.50;10.50;6.00
72307;PMS5003;60257;42.638;23.376;2023-08-01T06:16:32;10.75;10.75;5.75
72307;PMS5003;60257;42.638;23.376;2023-08-01T06:18:58;10.00;9.50;6.00
72307;PMS5003;60257;42.638;23.376;2023-08-01T06:21:24;10.50;9.25;6.00
72307;PMS5003;60257;42.638;23.376;2023-08-01T06:23:49;11.50;10.75;7.50
72307;PMS5003;60257;42.638;23.376;2023-08-01T06:26:15;11.75;11.75;9.00
72307;PMS5003;60257;42.638;23.376;2023-08-01T06:28:41;19.75;16.25;11.00
72307;PMS5003;60257;42.638;23.376;2023-08-01T06:31:07;10.00;10.00;7.00
72307;PMS5003;60257;42.638;23.376;2023-08-01T06:33:32;12.00;10.00;7.00
72307;PMS5003;60257;42.638;23.376;2023-08-01T06:35:57;13.25;12.25;8.00
72307;PMS5003;60257;42.638;23.376;2023-08-01T06:38:23;12.00;10.50;8.25
72307;PMS5003;60257;42.638;23.376;2023-08-01T06:40:49;15.00;13.25;8.75
72307;PMS5003;60257;42.638;23.376;2023-08-01T06:43:14;9.50;9.50;6.00
72307;PMS5003;60257;42.638;23.376;2023-08-01T06:45:40;11.50;11.00;7.00
72307;PMS5003;60257;42.638;23.376;2023-08-01T06:48:05;11.75;10.50;7.25
72307;PMS5003;60257;42.638;23.376;2023-08-01T06:50:31;10.25;10.25;6.75
72307;PMS5003;60257;42.638;23.376;2023-08-01T06:52:56;10.00;10.00;6.50
72307;PMS5003;60257;42.638;23.376;2023-08-01T06:55:21;14.25;14.25;11.00
72307;PMS5003;60257;42.638;23.376;2023-08-01T06:57:47;11.75;11.75;8.00
72307;PMS5003;60257;42.638;23.376;2023-08-01T07:00:12;12.75;12.75;8.25
72307;PMS5003;60257;42.638;23.376;2023-08-01T07:02:38;16.00;15.00;10.50
72307;PMS5003;60257;42.638;23.376;2023-08-01T07:05:04;16.50;15.75;10.50
72307;PMS5003;60257;42.638;23.376;2023-08-01T07:07:30;15.75;14.00;10.00
72307;PMS5003;60257;42.638;23.376;2023-08-01T07:09:55;16.25;16.25;10.00
72307;PMS5003;60257;42.638;23.376;2023-08-01T07:12:21;16.75;16.00;9.75
72307;PMS5003;60257;42.638;23.376;2023-08-01T07:14:46;14.75;13.25;11.50
72307;PMS5003;60257;42.638;23.376;2023-08-01T07:17:12;21.50;20.00;13.00
72307;PMS5003;60257;42.638;23.376;2023-08-01T07:19:37;14.75;14.75;9.00
72307;PMS5003;60257;42.638;23.376;2023-08-01T07:22:03;14.75;14.50;10.00
72307;PMS5003;60257;42.638;23.376;2023-08-01T07:24:29;20.00;19.25;12.75
72307;PMS5003;60257;42.638;23.376;2023-08-01T07:26:54;12.00;11.00;5.25
72307;PMS5003;60257;42.638;23.376;2023-08-01T07:29:20;19.50;18.25;12.50
72307;PMS5003;60257;42.638;23.376;2023-08-01T07:31:45;15.25;15.25;11.25
72307;PMS5003;60257;42.638;23.376;2023-08-01T07:34:11;16.25;15.25;9.50
72307;PMS5003;60257;42.638;23.376;2023-08-01T07:36:36;15.25;14.25;12.00
72307;PMS5003;60257;42.638;23.376;2023-08-01T07:39:02;14.00;14.00;10.50
72307;PMS5003;60257;42.638;23.376;2023-08-01T07:41:28;16.75;16.75;12.25
72307;PMS5003;60257;42.638;23.376;2023-08-01T07:43:53;15.50;14.25;11.50
72307;PMS5003;60257;42.638;23.376;2023-08-01T07:46:19;15.25;15.25;11.00
72307;PMS5003;60257;42.638;23.376;2023-08-01T07:48:44;13.25;12.00;9.00
72307;PMS5003;60257;42.638;23.376;2023-08-01T07:51:10;12.75;12.75;9.00
72307;PMS5003;60257;42.638;23.376;2023-08-01T07:53:36;16.25;16.25;10.00
72307;PMS5003;60257;42.638;23.376;2023-08-01T07:56:02;11.50;11.00;7.50
72307;PMS5003;60257;42.638;23.376;2023-08-01T07:58:28;12.75;12.75;8.25
72307;PMS5003;60257;42.638;23.376;2023-08-01T08:00:55;14.00;13.00;9.75
72307;PMS5003;60257;42.638;23.376;2023-08-01T08:03:20;13.75;13.75;10.00
72307;PMS5003;60257;42.638;23.376;2023-08-01T08:05:48;14.25;13.00;9.50
72307;PMS5003;60257;42.638;23.376;2023-08-01T08:08:14;17.50;17.00;10.25
72307;PMS5003;60257;42.638;23.376;2023-08-01T08:10:40;11.25;11.25;8.00
72307;PMS5003;60257;42.638;23.376;2023-08-01T08:13:05;17.00;13.75;8.75
72307;PMS5003;60257;42.638;23.376;2023-08-01T08:15:31;15.00;15.00;11.50
72307;PMS5003;60257;42.638;23.376;2023-08-01T08:18:00;16.50;16.50;10.75
72307;PMS5003;60257;42.638;23.376;2023-08-01T08:20:26;18.00;15.00;11.25
72307;PMS5003;60257;42.638;23.376;2023-08-01T08:22:51;18.25;18.00;13.00
72307;PMS5003;60257;42.638;23.376;2023-08-01T08:25:17;15.25;13.75;10.00
72307;PMS5003;60257;42.638;23.376;2023-08-01T08:27:42;18.00;17.75;11.00
72307;PMS5003;60257;42.638;23.376;2023-08-01T08:30:08;13.50;13.50;10.00
72307;PMS5003;60257;42.638;23.376;2023-08-01T08:32:34;10.00;9.00;8.50
72307;PMS5003;60257;42.638;23.376;2023-08-01T08:35:00;29.25;26.50;18.50
72307;PMS5003;60257;42.638;23.376;2023-08-01T08:37:26;19.75;19.50;12.50
72307;PMS5003;60257;42.638;23.376;2023-08-01T08:39:51;12.50;12.50;9.75
72307;PMS5003;60257;42.638;23.376;2023-08-01T08:42:20;14.75;12.50;9.25
72307;PMS5003;60257;42.638;23.376;2023-08-01T08:44:45;23.25;20.75;14.00
72307;PMS5003;60257;42.638;23.376;2023-08-01T08:47:18;16.25;16.25;13.00
72307;PMS5003;60257;42.638;23.376;2023-08-01T08:49:49;16.00;15.00;10.00
72307;PMS5003;60257;42.638;23.376;2023-08-01T08:52:15;21.00;19.75;13.50
72307;PMS5003;60257;42.638;23.376;2023-08-01T08:54:41;33.75;32.00;22.25
72307;PMS5003;60257;42.638;23.376;2023-08-01T08:57:07;13.00;13.00;9.25
72307;PMS5003;60257;42.638;23.376;2023-08-01T08:59:33;16.25;14.25;10.75
72307;PMS5003;60257;42.638;23.376;2023-08-01T09:02:01;17.00;17.00;11.00
72307;PMS5003;60257;42.638;23.376;2023-08-01T09:04:28;13.75;13.75;9.25
72307;PMS5003;60257;42.638;23.376;2023-08-01T09:06:55;16.75;16.25;11.00
72307;PMS5003;60257;42.638;23.376;2023-08-01T09:09:26;14.00;13.50;11.00
72307;PMS5003;60257;42.638;23.376;2023-08-01T09:11:53;15.25;13.50;10.25
72307;PMS5003;60257;42.638;23.376;2023-08-01T09:14:21;20.50;19.50;12.00
72307;PMS5003;60257;42.638;23.376;2023-08-01T09:16:47;14.75;14.75;10.50
72307;PMS5003;60257;42.638;23.376;2023-08-01T09:19:19;17.25;15.75;10.75
72307;PMS5003;60257;42.638;23.376;2023-08-01T09:21:46;17.25;15.25;11.25
72307;PMS5003;60257;42.638;23.376;2023-08-01T09:24:13;15.25;14.50;10.00
72307;PMS5003;60257;42.638;23.376;2023-08-01T09:26:40;17.25;16.25;10.00
72307;PMS5003;60257;42.638;23.376;2023-08-01T09:29:06;17.50;15.50;10.25
72307;PMS5003;60257;42.638;23.376;2023-08-01T09:31:33;16.50;13.75;9.50
72307;PMS5003;60257;42.638;23.376;2023-08-01T09:34:00;11.00;11.00;9.00
72307;PMS5003;60257;42.638;23.376;2023-08-01T09:36:29;14.50;13.50;8.75
72307;PMS5003;60257;42.638;23.376;2023-08-01T09:39:02;16.75;16.00;11.00
72307;PMS5003;60257;42.638;23.376;2023-08-01T09:41:29;15.50;15.00;10.50
72307;PMS5003;60257;42.638;23.376;2023-08-01T09:43:56;14.50;14.50;10.00
72307;PMS5003;60257;42.638;23.376;2023-08-01T09:46:22;18.25;16.00;11.75
72307;PMS5003;60257;42.638;23.376;2023-08-01T09:48:48;17.75;14.75;10.00
72307;PMS5003;60257;42.638;23.376;2023-08-01T09:51:14;18.25;16.75;12.00
72307;PMS5003;60257;42.638;23.376;2023-08-01T09:56:19;15.75;14.25;10.75
72307;PMS5003;60257;42.638;23.376;2023-08-01T09:58:49;13.00;12.00;8.00
72307;PMS5003;60257;42.638;23.376;2023-08-01T10:01:17;15.25;15.25;12.00
72307;PMS5003;60257;42.638;23.376;2023-08-01T10:03:48;14.50;14.50;10.00
72307;PMS5003;60257;42.638;23.376;2023-08-01T10:06:19;12.00;12.00;9.00
72307;PMS5003;60257;42.638;23.376;2023-08-01T10:08:46;15.25;15.25;10.00
72307;PMS5003;60257;42.638;23.376;2023-08-01T10:11:16;13.00;13.00;9.50
72307;PMS5003;60257;42.638;23.376;2023-08-01T10:13:43;16.25;15.00;11.50
72307;PMS5003;60257;42.638;23.376;2023-08-01T10:16:09;17.50;17.50;12.00
72307;PMS5003;60257;42.638;23.376;2023-08-01T10:18:36;17.00;17.00;12.00
72307;PMS5003;60257;42.638;23.376;2023-08-01T10:21:03;27.50;27.25;20.50
72307;PMS5003;60257;42.638;23.376;2023-08-01T10:23:31;18.75;17.00;11.75
72307;PMS5003;60257;42.638;23.376;2023-08-01T10:25:58;17.50;17.50;13.25
72307;PMS5003;60257;42.638;23.376;2023-08-01T10:28:39;16.75;15.75;12.00
72307;PMS5003;60257;42.638;23.376;2023-08-01T10:31:13;15.00;15.00;10.25
72307;PMS5003;60257;42.638;23.376;2023-08-01T10:33:43;14.00;12.50;10.00
72307;PMS5003;60257;42.638;23.376;2023-08-01T10:36:22;12.00;12.00;9.00
72307;PMS5003;60257;42.638;23.376;2023-08-01T10:38:56;15.75;15.00;11.00
72307;PMS5003;60257;42.638;23.376;2023-08-01T10:41:29;15.25;14.25;11.25
72307;PMS5003;60257;42.638;23.376;2023-08-01T10:44:09;17.50;17.25;12.25
72307;PMS5003;60257;42.638;23.376;2023-08-01T10:46:49;16.50;15.00;11.50
72307;PMS5003;60257;42.638;23.376;2023-08-01T10:52:20;13.50;13.50;11.25
72307;PMS5003;60257;42.638;23.376;2023-08-01T10:54:59;18.00;17.25;13.00
72307;PMS5003;60257;42.638;23.376;2023-08-01T10:57:26;16.00;15.00;10.75
72307;PMS5003;60257;42.638;23.376;2023-08-01T10:59:54;16.00;14.75;10.75
72307;PMS5003;60257;42.638;23.376;2023-08-01T11:02:22;15.50;13.50;11.50
72307;PMS5003;60257;42.638;23.376;2023-08-01T11:05:01;16.50;16.00;11.00
72307;PMS5003;60257;42.638;23.376;2023-08-01T11:07:28;17.00;16.00;11.25
72307;PMS5003;60257;42.638;23.376;2023-08-01T11:10:10;16.00;15.50;11.00
72307;PMS5003;60257;42.638;23.376;2023-08-01T11:12:38;16.75;16.50;13.25
72307;PMS5003;60257;42.638;23.376;2023-08-01T11:15:08;16.25;15.25;10.50
72307;PMS5003;60257;42.638;23.376;2023-08-01T11:17:36;14.75;14.00;10.00
72307;PMS5003;60257;42.638;23.376;2023-08-01T11:20:06;15.00;15.00;10.50
72307;PMS5003;60257;42.638;23.376;2023-08-01T11:22:34;14.00;14.00;10.00
72307;PMS5003;60257;42.638;23.376;2023-08-01T11:25:01;13.75;13.75;10.25
72307;PMS5003;60257;42.638;23.376;2023-08-01T11:27:26;16.00;14.75;11.00
72307;PMS5003;60257;42.638;23.376;2023-08-01T11:29:53;15.50;14.25;10.25
72307;PMS5003;60257;42.638;23.376;2023-08-01T11:32:19;15.25;14.25;11.25
72307;PMS5003;60257;42.638;23.376;2023-08-01T11:34:45;13.00;13.00;10.00
72307;PMS5003;60257;42.638;23.376;2023-08-01T11:37:12;12.25;12.25;8.25
72307;PMS5003;60257;42.638;23.376;2023-08-01T11:39:39;15.00;13.75;11.25
72307;PMS5003;60257;42.638;23.376;2023-08-01T11:42:05;13.50;12.50;9.00
72307;PMS5003;60257;42.638;23.376;2023-08-01T11:44:31;12.50;12.50;10.50
72307;PMS5003;60257;42.638;23.376;2023-08-01T11:46:57;13.50;13.50;8.75
72307;PMS5003;60257;42.638;23.376;2023-08-01T11:49:22;12.00;12.00;10.00
72307;PMS5003;60257;42.638;23.376;2023-08-01T11:51:48;16.00;16.00;13.00
72307;PMS5003;60257;42.638;23.376;2023-08-01T11:54:14;14.50;14.50;12.00
72307;PMS5003;60257;42.638;23.376;2023-08-01T11:56:41;17.50;17.50;12.75
72307;PMS5003;60257;42.638;23.376;2023-08-01T11:59:08;16.00;16.00;11.25
72307;PMS5003;60257;42.638;23.376;2023-08-01T12:01:37;15.50;15.50;10.75
72307;PMS5003;60257;42.638;23.376;2023-08-01T12:04:06;16.75;16.50;11.50
72307;PMS5003;60257;42.638;23.376;2023-08-01T12:06:32;16.00;16.00;12.50
72307;PMS5003;60257;42.638;23.376;2023-08-01T12:09:32;18.00;18.00;12.00
72307;PMS5003;60257;42.638;23.376;2023-08-01T12:11:57;15.00;14.00;11.00
72307;PMS5003;60257;42.638;23.376;2023-08-01T12:14:24;14.00;14.00;10.75
72307;PMS5003;60257;42.638;23.376;2023-08-01T12:16:50;17.00;16.00;12.25
72307;PMS5003;60257;42.638;23.376;2023-08-01T12:19:19;12.75;12.75;9.25
72307;PMS5003;60257;42.638;23.376;2023-08-01T12:21:45;11.25;11.25;9.00
72307;PMS5003;60257;42.638;23.376;2023-08-01T12:24:12;15.25;14.00;10.00
72307;PMS5003;60257;42.638;23.376;2023-08-01T12:26:37;12.75;12.75;10.00
72307;PMS5003;60257;42.638;23.376;2023-08-01T12:29:03;14.00;11.00;9.00
72307;PMS5003;60257;42.638;23.376;2023-08-01T12:31:28;13.50;13.25;9.25
72307;PMS5003;60257;42.638;23.376;2023-08-01T12:33:54;12.00;12.00;7.50
72307;PMS5003;60257;42.638;23.376;2023-08-01T12:36:19;11.75;11.50;9.50
72307;PMS5003;60257;42.638;23.376;2023-08-01T12:38:45;15.50;15.50;11.75
72307;PMS5003;60257;42.638;23.376;2023-08-01T12:41:11;16.25;15.50;11.00
72307;PMS5003;60257;42.638;23.376;2023-08-01T12:43:37;16.00;15.50;11.00
72307;PMS5003;60257;42.638;23.376;2023-08-01T12:46:02;16.75;16.75;12.50
72307;PMS5003;60257;42.638;23.376;2023-08-01T12:48:28;14.00;14.00;11.25
72307;PMS5003;60257;42.638;23.376;2023-08-01T12:50:54;15.00;14.25;9.75
72307;PMS5003;60257;42.638;23.376;2023-08-01T12:53:20;16.25;15.00;11.50
72307;PMS5003;60257;42.638;23.376;2023-08-01T12:55:47;11.75;11.75;8.00
72307;PMS5003;60257;42.638;23.376;2023-08-01T12:58:13;14.00;14.00;10.00
72307;PMS5003;60257;42.638;23.376;2023-08-01T13:00:39;17.00;15.75;12.75
72307;PMS5003;60257;42.638;23.376;2023-08-01T13:03:06;15.50;15.50;10.00
72307;PMS5003;60257;42.638;23.376;2023-08-01T13:05:39;14.75;14.75;11.00
72307;PMS5003;60257;42.638;23.376;2023-08-01T13:08:06;14.75;14.75;10.50
72307;PMS5003;60257;42.638;23.376;2023-08-01T13:10:32;16.50;16.50;12.00
72307;PMS5003;60257;42.638;23.376;2023-08-01T13:12:59;10.75;9.00;8.00
72307;PMS5003;60257;42.638;23.376;2023-08-01T13:15:25;15.25;15.25;12.00
72307;PMS5003;60257;42.638;23.376;2023-08-01T13:17:51;12.50;11.50;9.25
72307;PMS5003;60257;42.638;23.376;2023-08-01T13:20:17;13.50;13.50;10.75
72307;PMS5003;60257;42.638;23.376;2023-08-01T13:22:43;12.00;12.00;9.25
72307;PMS5003;60257;42.638;23.376;2023-08-01T13:25:10;17.25;16.75;12.00
72307;PMS5003;60257;42.638;23.376;2023-08-01T13:27:36;12.75;12.75;10.50
72307;PMS5003;60257;42.638;23.376;2023-08-01T13:30:02;9.00;9.00;7.00
72307;PMS5003;60257;42.638;23.376;2023-08-01T13:32:28;11.00;10.50;8.00
72307;PMS5003;60257;42.638;23.376;2023-08-01T13:34:53;14.25;14.25;10.00
72307;PMS5003;60257;42.638;23.376;2023-08-01T13:37:19;24.25;23.75;18.00
72307;PMS5003;60257;42.638;23.376;2023-08-01T13:39:44;11.25;11.25;8.00
72307;PMS5003;60257;42.638;23.376;2023-08-01T13:42:11;18.25;18.25;12.50
72307;PMS5003;60257;42.638;23.376;2023-08-01T13:44:37;13.75;12.50;9.00
72307;PMS5003;60257;42.638;23.376;2023-08-01T13:47:03;10.00;10.00;7.25